^^
Meteo Knjazevac Station Historical Data
Daily Summary for May 25, 2021 Units:  Metric    English   Both
Daily Weekly Monthly Yearly Custom
  High: Low: Average:
Temperature: 11.1 °C 10.1 °C 10.6 °C
Dew Point: 6.2 °C 4.8 °C 5.3 °C
Humidity: 72% 68% 70%
Wind Speed: 22.5km/h 3.2km/h 10.9km/h
Wind Gust: 33.8km/h - -
Wind- - SSW
Pressure: 1015.8 hPa 1014.4 hPa -
Precipitation: 0 mm    
Historical Graphs
 
 
Tabular Data for May 25, 2021
Time Temperature Dew Point Pressure Wind Wind Speed Wind Gust Humidity Rainfall Rate (Hourly) solar Conditions
00:00 10.2 °C 4.9 °C 1014.4 hPa SW 16.1 km/h 30.6 km/h 70% 0 mm 0 W/m2
00:10 10.2 °C 4.9 °C 1014.4 hPa SW 20.9 km/h 27.4 km/h 70% 0 mm 0 W/m2
00:20 10.2 °C 4.8 °C 1014.4 hPa SW 19.3 km/h 32.2 km/h 69% 0 mm 0 W/m2
00:30 10.1 °C 4.9 °C 1014.4 hPa SW 14.5 km/h 25.7 km/h 70% 0 mm 0 W/m2
00:40 10.2 °C 4.9 °C 1014.4 hPa SW 19.3 km/h 29 km/h 70% 0 mm 0 W/m2
00:50 10.3 °C 4.8 °C 1014.4 hPa SW 22.5 km/h 33.8 km/h 69% 0 mm 0 W/m2
01:00 10.4 °C 4.9 °C 1014.4 hPa SW 16.1 km/h 27.4 km/h 69% 0 mm 0 W/m2
01:10 10.4 °C 4.9 °C 1014.4 hPa SW 12.9 km/h 22.5 km/h 69% 0 mm 0 W/m2
01:20 10.4 °C 4.9 °C 1014.8 hPa SW 14.5 km/h 25.7 km/h 69% 0 mm 0 W/m2
01:40 10.5 °C 5.1 °C 1014.4 hPa SW 16.1 km/h 32.2 km/h 69% 0 mm 0 W/m2
01:50 10.6 °C 5.2 °C 1014.4 hPa SW 12.9 km/h 29 km/h 69% 0 mm 0 W/m2
02:00 10.5 °C 5.1 °C 1014.4 hPa SW 12.9 km/h 19.3 km/h 69% 0 mm 0 W/m2
02:10 10.6 °C 5.2 °C 1014.4 hPa SW 12.9 km/h 24.1 km/h 69% 0 mm 0 W/m2
02:20 10.7 °C 5.1 °C 1014.4 hPa SW 12.9 km/h 24.1 km/h 68% 0 mm 0 W/m2
02:30 10.7 °C 5.1 °C 1014.4 hPa SW 12.9 km/h 24.1 km/h 68% 0 mm 0 W/m2
02:40 10.7 °C 5.1 °C 1014.4 hPa SW 11.3 km/h 19.3 km/h 68% 0 mm 0 W/m2
02:50 10.7 °C 5.1 °C 1014.4 hPa SW 9.7 km/h 24.1 km/h 68% 0 mm 0 W/m2
03:00 10.7 °C 5.1 °C 1014.4 hPa SSW 12.9 km/h 22.5 km/h 68% 0 mm 0 W/m2
03:20 10.6 °C 4.9 °C 1014.4 hPa SSE 8 km/h 14.5 km/h 68% 0 mm 0 W/m2
03:30 10.5 °C 4.8 °C 1014.4 hPa SSW 8 km/h 19.3 km/h 68% 0 mm 0 W/m2
03:40 10.4 °C 4.9 °C 1014.4 hPa SSW 9.7 km/h 19.3 km/h 69% 0 mm 0 W/m2
03:50 10.6 °C 5.2 °C 1014.4 hPa SW 9.7 km/h 20.9 km/h 69% 0 mm 0 W/m2
04:00 10.6 °C 5.2 °C 1014.4 hPa SW 11.3 km/h 16.1 km/h 69% 0 mm 0 W/m2
04:10 10.6 °C 5.2 °C 1014.4 hPa SW 9.7 km/h 22.5 km/h 69% 0 mm 0 W/m2
04:20 10.6 °C 5.2 °C 1014.4 hPa SW 11.3 km/h 20.9 km/h 69% 0 mm 0 W/m2
04:30 10.6 °C 5.3 °C 1014.4 hPa SW 3.2 km/h 16.1 km/h 70% 0 mm 0 W/m2
04:40 10.5 °C 5.3 °C 1014.4 hPa SW 3.2 km/h 12.9 km/h 70% 0 mm 0 W/m2
04:50 10.4 °C 5.6 °C 1014.8 hPa SSW 4.8 km/h 9.7 km/h 72% 0 mm 0 W/m2
05:00 10.4 °C 5.6 °C 1014.8 hPa SSW 8 km/h 14.5 km/h 72% 0 mm 0 W/m2
05:10 10.5 °C 5.7 °C 1014.8 hPa SW 9.7 km/h 16.1 km/h 72% 0 mm 0 W/m2
05:20 10.4 °C 5.6 °C 1014.8 hPa South 4.8 km/h 9.7 km/h 72% 0 mm 0 W/m2
05:30 10.2 °C 5.4 °C 1014.4 hPa SSW 3.2 km/h 9.7 km/h 72% 0 mm 0 W/m2
05:50 10.5 °C 5.7 °C 1014.8 hPa SW 8 km/h 19.3 km/h 72% 0 mm 0 W/m2
06:00 10.6 °C 5.8 °C 1014.8 hPa SSW 11.3 km/h 17.7 km/h 72% 0 mm 0 W/m2
06:10 10.5 °C 5.3 °C 1014.8 hPa East 3.2 km/h 14.5 km/h 70% 0 mm 0 W/m2
06:30 10.5 °C 5.3 °C 1015.1 hPa SE 8 km/h 11.3 km/h 70% 0 mm 0 W/m2
06:50 10.6 °C 5.3 °C 1015.1 hPa SSE 8 km/h 16.1 km/h 70% 0 mm 0 W/m2
07:00 10.6 °C 5.3 °C 1015.1 hPa South 11.3 km/h 22.5 km/h 70% 0 mm 0 W/m2
07:10 10.7 °C 5.8 °C 1015.5 hPa SW 4.8 km/h 11.3 km/h 72% 0 mm 3 W/m2
07:20 10.9 °C 6.1 °C 1015.5 hPa SSW 9.7 km/h 19.3 km/h 72% 0 mm 7 W/m2
07:30 10.9 °C 6.1 °C 1015.5 hPa SW 12.9 km/h 20.9 km/h 72% 0 mm 14 W/m2
07:40 10.9 °C 6.1 °C 1015.5 hPa SW 12.9 km/h 24.1 km/h 72% 0 mm 21 W/m2
07:50 10.9 °C 6.1 °C 1015.5 hPa SW 12.9 km/h 20.9 km/h 72% 0 mm 35 W/m2
08:00 10.9 °C 6.1 °C 1015.8 hPa SW 9.7 km/h 19.3 km/h 72% 0 mm 61 W/m2
08:10 11 °C 6.2 °C 1015.8 hPa SW 11.3 km/h 19.3 km/h 72% 0 mm 60 W/m2
08:20 11 °C 6.2 °C 1015.5 hPa SW 8 km/h 12.9 km/h 72% 0 mm 43 W/m2
08:30 11 °C 6.2 °C 1015.8 hPa SW 9.7 km/h 12.9 km/h 72% 0 mm 52 W/m2
08:40 11.1 °C 6.2 °C 1015.8 hPa SW 9.7 km/h 12.9 km/h 72% 0 mm 83 W/m2
Knjazevac, Serbia
Compliments of Weather Underground - 2 mb